Terminal Aerodrome Forecast
Issued by NWS

Current Version | Previous Version | Text Only | Print | Product List | Glossary On
Versions: 1 2 3 4 5 6 7 8 9 10 11 12 13 14 15 16 17 18 19 20 21
000
FTUS45 KGJT 231123
TAFMTJ
TAF
KMTJ 231123Z 2312/2412 14008KT P6SM SCT250
     FM231800 23010KT P6SM FEW250
     FM232000 22015G25KT P6SM SCT200
     FM240200 20010KT P6SM SCT200 WS020/25030KT
     FM240600 17006KT P6SM SCT200=

USA.gov is the U.S. government's official web portal to all federal, state and local government web resources and services.